sensor_id;sensor_type;location;lat;lon;timestamp;P1;durP1;ratioP1;P2;durP2;ratioP2
1336;SDS011;662;48.814;9.318;2023-07-08T00:00:24;6.10;;;4.77;;
1336;SDS011;662;48.814;9.318;2023-07-08T00:02:50;7.00;;;5.00;;
1336;SDS011;662;48.814;9.318;2023-07-08T00:05:18;8.57;;;5.50;;
1336;SDS011;662;48.814;9.318;2023-07-08T00:07:44;5.97;;;5.23;;
1336;SDS011;662;48.814;9.318;2023-07-08T00:12:42;7.63;;;4.40;;
1336;SDS011;662;48.814;9.318;2023-07-08T00:15:08;6.90;;;5.20;;
1336;SDS011;662;48.814;9.318;2023-07-08T00:17:34;5.63;;;4.97;;
1336;SDS011;662;48.814;9.318;2023-07-08T00:20:00;6.93;;;4.77;;
1336;SDS011;662;48.814;9.318;2023-07-08T00:22:26;7.20;;;5.30;;
1336;SDS011;662;48.814;9.318;2023-07-08T00:24:51;6.10;;;5.07;;
1336;SDS011;662;48.814;9.318;2023-07-08T00:27:17;6.37;;;4.87;;
1336;SDS011;662;48.814;9.318;2023-07-08T00:29:43;6.63;;;4.87;;
1336;SDS011;662;48.814;9.318;2023-07-08T00:32:10;6.23;;;5.23;;
1336;SDS011;662;48.814;9.318;2023-07-08T00:34:37;7.50;;;5.30;;
1336;SDS011;662;48.814;9.318;2023-07-08T00:37:04;6.80;;;5.60;;
1336;SDS011;662;48.814;9.318;2023-07-08T00:39:31;5.97;;;4.80;;
1336;SDS011;662;48.814;9.318;2023-07-08T00:41:57;9.03;;;5.30;;
1336;SDS011;662;48.814;9.318;2023-07-08T00:44:25;5.90;;;4.60;;
1336;SDS011;662;48.814;9.318;2023-07-08T00:46:55;7.20;;;4.60;;
1336;SDS011;662;48.814;9.318;2023-07-08T00:49:39;7.33;;;5.57;;
1336;SDS011;662;48.814;9.318;2023-07-08T00:52:22;6.00;;;4.83;;
1336;SDS011;662;48.814;9.318;2023-07-08T00:54:57;6.10;;;5.27;;
1336;SDS011;662;48.814;9.318;2023-07-08T00:57:27;7.60;;;5.83;;
1336;SDS011;662;48.814;9.318;2023-07-08T00:59:58;6.23;;;5.00;;
1336;SDS011;662;48.814;9.318;2023-07-08T01:02:29;6.53;;;5.20;;
1336;SDS011;662;48.814;9.318;2023-07-08T01:05:06;6.60;;;5.20;;
1336;SDS011;662;48.814;9.318;2023-07-08T01:07:35;5.90;;;5.03;;
1336;SDS011;662;48.814;9.318;2023-07-08T01:10:04;6.90;;;5.27;;
1336;SDS011;662;48.814;9.318;2023-07-08T01:12:38;7.07;;;4.87;;
1336;SDS011;662;48.814;9.318;2023-07-08T01:15:09;8.47;;;5.57;;
1336;SDS011;662;48.814;9.318;2023-07-08T01:17:35;8.23;;;5.20;;
1336;SDS011;662;48.814;9.318;2023-07-08T01:20:02;7.20;;;5.10;;
1336;SDS011;662;48.814;9.318;2023-07-08T01:22:37;6.23;;;4.93;;
1336;SDS011;662;48.814;9.318;2023-07-08T01:25:04;7.67;;;5.30;;
1336;SDS011;662;48.814;9.318;2023-07-08T01:27:32;8.20;;;5.00;;
1336;SDS011;662;48.814;9.318;2023-07-08T01:30:00;7.50;;;5.53;;
1336;SDS011;662;48.814;9.318;2023-07-08T01:32:27;8.50;;;5.90;;
1336;SDS011;662;48.814;9.318;2023-07-08T01:34:55;6.63;;;5.17;;
1336;SDS011;662;48.814;9.318;2023-07-08T01:38:08;7.37;;;4.87;;
1336;SDS011;662;48.814;9.318;2023-07-08T01:42:45;5.97;;;4.80;;
1336;SDS011;662;48.814;9.318;2023-07-08T01:45:15;6.67;;;5.03;;
1336;SDS011;662;48.814;9.318;2023-07-08T01:47:42;6.40;;;5.27;;
1336;SDS011;662;48.814;9.318;2023-07-08T01:50:11;6.50;;;4.80;;
1336;SDS011;662;48.814;9.318;2023-07-08T01:52:37;6.63;;;5.27;;
1336;SDS011;662;48.814;9.318;2023-07-08T01:55:04;6.40;;;4.87;;
1336;SDS011;662;48.814;9.318;2023-07-08T01:57:30;8.00;;;5.47;;
1336;SDS011;662;48.814;9.318;2023-07-08T01:59:56;6.73;;;5.50;;
1336;SDS011;662;48.814;9.318;2023-07-08T02:02:21;6.50;;;5.40;;
1336;SDS011;662;48.814;9.318;2023-07-08T02:04:49;7.60;;;5.47;;
1336;SDS011;662;48.814;9.318;2023-07-08T02:07:14;6.80;;;4.67;;
1336;SDS011;662;48.814;9.318;2023-07-08T02:09:40;7.90;;;5.50;;
1336;SDS011;662;48.814;9.318;2023-07-08T02:12:06;6.17;;;5.17;;
1336;SDS011;662;48.814;9.318;2023-07-08T02:14:31;7.40;;;5.40;;
1336;SDS011;662;48.814;9.318;2023-07-08T02:16:57;5.90;;;4.97;;
1336;SDS011;662;48.814;9.318;2023-07-08T02:19:23;6.93;;;5.20;;
1336;SDS011;662;48.814;9.318;2023-07-08T02:21:49;8.17;;;5.20;;
1336;SDS011;662;48.814;9.318;2023-07-08T02:24:17;6.10;;;5.10;;
1336;SDS011;662;48.814;9.318;2023-07-08T02:26:42;7.57;;;5.60;;
1336;SDS011;662;48.814;9.318;2023-07-08T02:29:08;6.23;;;4.77;;
1336;SDS011;662;48.814;9.318;2023-07-08T02:31:33;7.63;;;5.10;;
1336;SDS011;662;48.814;9.318;2023-07-08T02:33:59;6.83;;;5.37;;
1336;SDS011;662;48.814;9.318;2023-07-08T02:36:27;7.77;;;5.60;;
1336;SDS011;662;48.814;9.318;2023-07-08T02:38:53;7.63;;;6.00;;
1336;SDS011;662;48.814;9.318;2023-07-08T02:41:18;14.37;;;5.53;;
1336;SDS011;662;48.814;9.318;2023-07-08T02:43:44;9.23;;;5.77;;
1336;SDS011;662;48.814;9.318;2023-07-08T02:46:10;7.20;;;5.40;;
1336;SDS011;662;48.814;9.318;2023-07-08T02:48:36;5.90;;;4.70;;
1336;SDS011;662;48.814;9.318;2023-07-08T02:51:02;6.57;;;5.23;;
1336;SDS011;662;48.814;9.318;2023-07-08T02:53:29;7.53;;;5.43;;
1336;SDS011;662;48.814;9.318;2023-07-08T02:55:55;7.73;;;5.80;;
1336;SDS011;662;48.814;9.318;2023-07-08T02:58:21;8.53;;;6.60;;
1336;SDS011;662;48.814;9.318;2023-07-08T03:00:56;7.57;;;5.83;;
1336;SDS011;662;48.814;9.318;2023-07-08T03:03:25;8.80;;;5.80;;
1336;SDS011;662;48.814;9.318;2023-07-08T03:05:57;8.00;;;5.30;;
1336;SDS011;662;48.814;9.318;2023-07-08T03:08:25;7.20;;;5.30;;
1336;SDS011;662;48.814;9.318;2023-07-08T03:10:55;7.60;;;5.50;;
1336;SDS011;662;48.814;9.318;2023-07-08T03:13:26;6.80;;;5.40;;
1336;SDS011;662;48.814;9.318;2023-07-08T03:15:52;7.53;;;5.50;;
1336;SDS011;662;48.814;9.318;2023-07-08T03:18:17;6.77;;;5.30;;
1336;SDS011;662;48.814;9.318;2023-07-08T03:20:47;9.17;;;6.27;;
1336;SDS011;662;48.814;9.318;2023-07-08T03:23:13;7.73;;;5.50;;
1336;SDS011;662;48.814;9.318;2023-07-08T03:25:39;6.80;;;5.60;;
1336;SDS011;662;48.814;9.318;2023-07-08T03:28:05;7.47;;;5.60;;
1336;SDS011;662;48.814;9.318;2023-07-08T03:30:32;8.00;;;5.90;;
1336;SDS011;662;48.814;9.318;2023-07-08T03:32:58;6.30;;;5.10;;
1336;SDS011;662;48.814;9.318;2023-07-08T03:35:24;5.70;;;5.10;;
1336;SDS011;662;48.814;9.318;2023-07-08T03:37:51;7.67;;;5.87;;
1336;SDS011;662;48.814;9.318;2023-07-08T03:40:17;6.77;;;5.37;;
1336;SDS011;662;48.814;9.318;2023-07-08T03:42:43;7.47;;;5.83;;
1336;SDS011;662;48.814;9.318;2023-07-08T03:45:09;6.53;;;4.47;;
1336;SDS011;662;48.814;9.318;2023-07-08T03:47:34;8.83;;;5.87;;
1336;SDS011;662;48.814;9.318;2023-07-08T03:50:00;6.80;;;5.60;;
1336;SDS011;662;48.814;9.318;2023-07-08T03:52:26;7.47;;;5.43;;
1336;SDS011;662;48.814;9.318;2023-07-08T03:54:51;8.70;;;5.20;;
1336;SDS011;662;48.814;9.318;2023-07-08T03:57:17;6.03;;;4.97;;
1336;SDS011;662;48.814;9.318;2023-07-08T03:59:43;8.07;;;5.70;;
1336;SDS011;662;48.814;9.318;2023-07-08T04:02:10;6.63;;;5.43;;
1336;SDS011;662;48.814;9.318;2023-07-08T04:04:36;6.60;;;5.20;;
1336;SDS011;662;48.814;9.318;2023-07-08T04:07:03;6.20;;;5.10;;
1336;SDS011;662;48.814;9.318;2023-07-08T04:09:29;8.00;;;5.20;;
1336;SDS011;662;48.814;9.318;2023-07-08T04:11:55;8.67;;;5.63;;
1336;SDS011;662;48.814;9.318;2023-07-08T04:14:20;6.00;;;5.20;;
1336;SDS011;662;48.814;9.318;2023-07-08T04:16:48;7.07;;;5.37;;
1336;SDS011;662;48.814;9.318;2023-07-08T04:19:21;9.43;;;5.97;;
1336;SDS011;662;48.814;9.318;2023-07-08T04:21:47;7.33;;;5.70;;
1336;SDS011;662;48.814;9.318;2023-07-08T04:24:13;8.00;;;5.33;;
1336;SDS011;662;48.814;9.318;2023-07-08T04:26:40;9.13;;;5.47;;
1336;SDS011;662;48.814;9.318;2023-07-08T04:29:13;7.57;;;5.50;;
1336;SDS011;662;48.814;9.318;2023-07-08T04:31:40;6.60;;;4.87;;
1336;SDS011;662;48.814;9.318;2023-07-08T04:34:06;6.73;;;4.80;;
1336;SDS011;662;48.814;9.318;2023-07-08T04:36:32;6.20;;;5.00;;
1336;SDS011;662;48.814;9.318;2023-07-08T04:38:58;6.30;;;5.27;;
1336;SDS011;662;48.814;9.318;2023-07-08T04:41:25;8.30;;;5.37;;
1336;SDS011;662;48.814;9.318;2023-07-08T04:43:51;7.17;;;5.33;;
1336;SDS011;662;48.814;9.318;2023-07-08T04:46:30;7.83;;;5.97;;
1336;SDS011;662;48.814;9.318;2023-07-08T04:49:00;7.07;;;5.53;;
1336;SDS011;662;48.814;9.318;2023-07-08T04:51:26;7.20;;;5.40;;
1336;SDS011;662;48.814;9.318;2023-07-08T04:53:52;6.40;;;5.30;;
1336;SDS011;662;48.814;9.318;2023-07-08T04:56:17;6.43;;;5.17;;
1336;SDS011;662;48.814;9.318;2023-07-08T04:58:44;7.17;;;5.53;;
1336;SDS011;662;48.814;9.318;2023-07-08T05:01:09;10.10;;;6.07;;
1336;SDS011;662;48.814;9.318;2023-07-08T05:03:35;6.73;;;5.37;;
1336;SDS011;662;48.814;9.318;2023-07-08T05:06:00;7.17;;;5.43;;
1336;SDS011;662;48.814;9.318;2023-07-08T05:08:26;5.87;;;4.93;;
1336;SDS011;662;48.814;9.318;2023-07-08T05:10:51;8.30;;;5.80;;
1336;SDS011;662;48.814;9.318;2023-07-08T05:13:17;8.10;;;5.60;;
1336;SDS011;662;48.814;9.318;2023-07-08T05:15:43;6.60;;;5.10;;
1336;SDS011;662;48.814;9.318;2023-07-08T05:18:08;7.50;;;5.97;;
1336;SDS011;662;48.814;9.318;2023-07-08T05:20:34;5.97;;;5.20;;
1336;SDS011;662;48.814;9.318;2023-07-08T05:23:01;8.20;;;6.00;;
1336;SDS011;662;48.814;9.318;2023-07-08T05:25:27;7.00;;;4.93;;
1336;SDS011;662;48.814;9.318;2023-07-08T05:27:55;6.53;;;5.37;;
1336;SDS011;662;48.814;9.318;2023-07-08T05:30:21;7.50;;;5.30;;
1336;SDS011;662;48.814;9.318;2023-07-08T05:32:47;7.17;;;5.30;;
1336;SDS011;662;48.814;9.318;2023-07-08T05:35:12;7.57;;;6.20;;
1336;SDS011;662;48.814;9.318;2023-07-08T05:37:38;7.70;;;5.50;;
1336;SDS011;662;48.814;9.318;2023-07-08T05:40:05;7.40;;;5.43;;
1336;SDS011;662;48.814;9.318;2023-07-08T05:42:32;8.13;;;5.87;;
1336;SDS011;662;48.814;9.318;2023-07-08T05:44:58;10.23;;;5.80;;
1336;SDS011;662;48.814;9.318;2023-07-08T05:47:24;6.90;;;5.10;;
1336;SDS011;662;48.814;9.318;2023-07-08T05:49:51;8.03;;;5.17;;
1336;SDS011;662;48.814;9.318;2023-07-08T05:52:17;6.80;;;4.97;;
1336;SDS011;662;48.814;9.318;2023-07-08T05:54:42;8.00;;;5.67;;
1336;SDS011;662;48.814;9.318;2023-07-08T05:57:09;7.73;;;5.80;;
1336;SDS011;662;48.814;9.318;2023-07-08T05:59:36;12.33;;;5.43;;
1336;SDS011;662;48.814;9.318;2023-07-08T06:02:03;8.47;;;5.77;;
1336;SDS011;662;48.814;9.318;2023-07-08T06:04:30;7.43;;;5.40;;
1336;SDS011;662;48.814;9.318;2023-07-08T06:06:56;6.37;;;4.87;;
1336;SDS011;662;48.814;9.318;2023-07-08T06:09:22;6.13;;;5.00;;
1336;SDS011;662;48.814;9.318;2023-07-08T06:11:47;8.33;;;5.00;;
1336;SDS011;662;48.814;9.318;2023-07-08T06:14:13;6.60;;;4.90;;
1336;SDS011;662;48.814;9.318;2023-07-08T06:16:39;5.97;;;4.77;;
1336;SDS011;662;48.814;9.318;2023-07-08T06:19:04;7.50;;;4.87;;
1336;SDS011;662;48.814;9.318;2023-07-08T06:21:30;7.67;;;5.73;;
1336;SDS011;662;48.814;9.318;2023-07-08T06:23:56;7.93;;;5.40;;
1336;SDS011;662;48.814;9.318;2023-07-08T06:26:22;7.13;;;5.33;;
1336;SDS011;662;48.814;9.318;2023-07-08T06:28:48;6.83;;;4.67;;
1336;SDS011;662;48.814;9.318;2023-07-08T06:31:14;7.90;;;5.60;;
1336;SDS011;662;48.814;9.318;2023-07-08T06:33:40;6.70;;;5.03;;
1336;SDS011;662;48.814;9.318;2023-07-08T06:36:05;7.30;;;5.73;;
1336;SDS011;662;48.814;9.318;2023-07-08T06:38:32;7.00;;;5.10;;
1336;SDS011;662;48.814;9.318;2023-07-08T06:40:58;7.73;;;5.33;;
1336;SDS011;662;48.814;9.318;2023-07-08T06:43:24;8.10;;;5.43;;
1336;SDS011;662;48.814;9.318;2023-07-08T06:45:50;6.83;;;5.00;;
1336;SDS011;662;48.814;9.318;2023-07-08T06:48:15;9.23;;;5.20;;
1336;SDS011;662;48.814;9.318;2023-07-08T06:50:42;6.90;;;5.40;;
1336;SDS011;662;48.814;9.318;2023-07-08T06:53:10;8.17;;;5.00;;
1336;SDS011;662;48.814;9.318;2023-07-08T06:55:35;9.10;;;5.50;;
1336;SDS011;662;48.814;9.318;2023-07-08T06:58:01;8.33;;;5.03;;
1336;SDS011;662;48.814;9.318;2023-07-08T07:00:27;6.20;;;5.10;;
1336;SDS011;662;48.814;9.318;2023-07-08T07:02:52;9.27;;;5.90;;
1336;SDS011;662;48.814;9.318;2023-07-08T07:05:18;6.07;;;4.90;;
1336;SDS011;662;48.814;9.318;2023-07-08T07:07:44;7.07;;;4.50;;
1336;SDS011;662;48.814;9.318;2023-07-08T07:10:09;8.53;;;5.30;;
1336;SDS011;662;48.814;9.318;2023-07-08T07:12:35;5.00;;;4.50;;
1336;SDS011;662;48.814;9.318;2023-07-08T07:15:01;7.50;;;5.40;;
1336;SDS011;662;48.814;9.318;2023-07-08T07:17:27;6.97;;;6.27;;
1336;SDS011;662;48.814;9.318;2023-07-08T07:19:55;6.03;;;4.80;;
1336;SDS011;662;48.814;9.318;2023-07-08T07:22:21;8.93;;;5.97;;
1336;SDS011;662;48.814;9.318;2023-07-08T07:24:47;7.67;;;4.87;;
1336;SDS011;662;48.814;9.318;2023-07-08T07:27:13;6.63;;;4.10;;
1336;SDS011;662;48.814;9.318;2023-07-08T07:29:43;8.10;;;4.40;;
1336;SDS011;662;48.814;9.318;2023-07-08T07:32:10;7.27;;;5.23;;
1336;SDS011;662;48.814;9.318;2023-07-08T07:34:37;6.03;;;4.27;;
1336;SDS011;662;48.814;9.318;2023-07-08T07:37:03;8.00;;;4.97;;
1336;SDS011;662;48.814;9.318;2023-07-08T07:39:30;7.20;;;4.83;;
1336;SDS011;662;48.814;9.318;2023-07-08T07:41:56;6.70;;;4.60;;
1336;SDS011;662;48.814;9.318;2023-07-08T07:44:21;6.33;;;4.30;;
1336;SDS011;662;48.814;9.318;2023-07-08T07:46:47;5.50;;;4.43;;
1336;SDS011;662;48.814;9.318;2023-07-08T07:49:13;10.10;;;5.17;;
1336;SDS011;662;48.814;9.318;2023-07-08T07:51:38;5.50;;;4.23;;
1336;SDS011;662;48.814;9.318;2023-07-08T07:54:04;6.17;;;4.40;;
1336;SDS011;662;48.814;9.318;2023-07-08T07:56:30;7.50;;;5.00;;
1336;SDS011;662;48.814;9.318;2023-07-08T07:58:55;5.43;;;4.60;;
1336;SDS011;662;48.814;9.318;2023-07-08T08:01:21;5.90;;;4.20;;
1336;SDS011;662;48.814;9.318;2023-07-08T08:03:48;4.90;;;4.40;;
1336;SDS011;662;48.814;9.318;2023-07-08T08:06:15;5.10;;;3.97;;
1336;SDS011;662;48.814;9.318;2023-07-08T08:08:43;5.17;;;3.83;;
1336;SDS011;662;48.814;9.318;2023-07-08T08:11:09;6.50;;;4.40;;
1336;SDS011;662;48.814;9.318;2023-07-08T08:13:34;4.40;;;3.50;;
1336;SDS011;662;48.814;9.318;2023-07-08T08:16:00;4.33;;;3.50;;
1336;SDS011;662;48.814;9.318;2023-07-08T08:18:27;6.00;;;3.63;;
1336;SDS011;662;48.814;9.318;2023-07-08T08:20:53;5.00;;;3.87;;
1336;SDS011;662;48.814;9.318;2023-07-08T08:23:19;4.67;;;3.83;;
1336;SDS011;662;48.814;9.318;2023-07-08T08:25:44;6.10;;;4.67;;
1336;SDS011;662;48.814;9.318;2023-07-08T08:28:12;4.53;;;3.40;;
1336;SDS011;662;48.814;9.318;2023-07-08T08:30:37;5.57;;;4.20;;
1336;SDS011;662;48.814;9.318;2023-07-08T08:33:03;4.70;;;3.57;;
1336;SDS011;662;48.814;9.318;2023-07-08T08:35:29;4.67;;;3.63;;
1336;SDS011;662;48.814;9.318;2023-07-08T08:37:54;8.73;;;3.97;;
1336;SDS011;662;48.814;9.318;2023-07-08T08:40:20;6.10;;;4.27;;
1336;SDS011;662;48.814;9.318;2023-07-08T08:42:50;9.03;;;3.93;;
1336;SDS011;662;48.814;9.318;2023-07-08T08:45:18;5.70;;;4.10;;
1336;SDS011;662;48.814;9.318;2023-07-08T08:47:47;4.97;;;3.20;;
1336;SDS011;662;48.814;9.318;2023-07-08T08:52:58;5.30;;;3.90;;
1336;SDS011;662;48.814;9.318;2023-07-08T08:55:27;4.40;;;3.23;;
1336;SDS011;662;48.814;9.318;2023-07-08T08:57:59;3.70;;;2.83;;
1336;SDS011;662;48.814;9.318;2023-07-08T09:03:12;2.70;;;2.50;;
1336;SDS011;662;48.814;9.318;2023-07-08T09:05:42;4.33;;;3.30;;
1336;SDS011;662;48.814;9.318;2023-07-08T09:08:30;3.90;;;3.10;;
1336;SDS011;662;48.814;9.318;2023-07-08T09:13:59;3.77;;;3.43;;
1336;SDS011;662;48.814;9.318;2023-07-08T09:16:43;4.67;;;3.23;;
1336;SDS011;662;48.814;9.318;2023-07-08T09:19:18;5.10;;;3.50;;
1336;SDS011;662;48.814;9.318;2023-07-08T09:22:08;5.10;;;3.00;;
1336;SDS011;662;48.814;9.318;2023-07-08T09:24:44;5.03;;;2.43;;
1336;SDS011;662;48.814;9.318;2023-07-08T09:27:16;6.73;;;3.00;;
1336;SDS011;662;48.814;9.318;2023-07-08T09:29:42;3.30;;;2.80;;
1336;SDS011;662;48.814;9.318;2023-07-08T09:32:17;6.30;;;3.10;;
1336;SDS011;662;48.814;9.318;2023-07-08T09:34:54;4.00;;;2.83;;
1336;SDS011;662;48.814;9.318;2023-07-08T09:37:33;3.63;;;2.67;;
1336;SDS011;662;48.814;9.318;2023-07-08T09:40:03;2.83;;;2.57;;
1336;SDS011;662;48.814;9.318;2023-07-08T09:42:40;4.33;;;3.17;;
1336;SDS011;662;48.814;9.318;2023-07-08T09:45:12;4.07;;;2.87;;
1336;SDS011;662;48.814;9.318;2023-07-08T09:47:40;4.07;;;2.70;;
1336;SDS011;662;48.814;9.318;2023-07-08T09:50:19;3.07;;;2.73;;
1336;SDS011;662;48.814;9.318;2023-07-08T09:52:51;3.00;;;2.60;;
1336;SDS011;662;48.814;9.318;2023-07-08T09:55:18;3.47;;;2.27;;
1336;SDS011;662;48.814;9.318;2023-07-08T09:57:45;2.87;;;2.23;;
1336;SDS011;662;48.814;9.318;2023-07-08T10:00:15;2.00;;;1.73;;
1336;SDS011;662;48.814;9.318;2023-07-08T10:02:53;2.60;;;2.40;;
1336;SDS011;662;48.814;9.318;2023-07-08T10:05:26;2.97;;;2.20;;
1336;SDS011;662;48.814;9.318;2023-07-08T10:08:01;3.43;;;2.23;;
1336;SDS011;662;48.814;9.318;2023-07-08T10:10:36;3.83;;;2.30;;
1336;SDS011;662;48.814;9.318;2023-07-08T10:13:09;4.17;;;2.73;;
1336;SDS011;662;48.814;9.318;2023-07-08T10:16:03;3.03;;;2.67;;
1336;SDS011;662;48.814;9.318;2023-07-08T10:18:51;3.70;;;3.30;;
1336;SDS011;662;48.814;9.318;2023-07-08T10:35:44;3.60;;;3.30;;
1336;SDS011;662;48.814;9.318;2023-07-08T10:50:07;5.00;;;3.00;;
1336;SDS011;662;48.814;9.318;2023-07-08T10:52:50;3.20;;;2.83;;
1336;SDS011;662;48.814;9.318;2023-07-08T10:55:28;3.23;;;2.90;;
1336;SDS011;662;48.814;9.318;2023-07-08T11:06:51;2.73;;;2.47;;
1336;SDS011;662;48.814;9.318;2023-07-08T11:09:20;2.57;;;2.33;;
1336;SDS011;662;48.814;9.318;2023-07-08T11:16:55;2.30;;;2.10;;
1336;SDS011;662;48.814;9.318;2023-07-08T11:19:34;2.73;;;2.53;;
1336;SDS011;662;48.814;9.318;2023-07-08T11:22:07;3.85;;;2.10;;
1336;SDS011;662;48.814;9.318;2023-07-08T11:29:50;3.42;;;2.10;;
1336;SDS011;662;48.814;9.318;2023-07-08T11:32:21;3.33;;;2.08;;
1336;SDS011;662;48.814;9.318;2023-07-08T11:34:50;2.15;;;1.70;;
1336;SDS011;662;48.814;9.318;2023-07-08T11:37:17;2.40;;;1.95;;
1336;SDS011;662;48.814;9.318;2023-07-08T11:39:47;4.07;;;1.65;;
1336;SDS011;662;48.814;9.318;2023-07-08T11:44:47;2.42;;;1.80;;
1336;SDS011;662;48.814;9.318;2023-07-08T11:47:18;3.45;;;2.17;;
1336;SDS011;662;48.814;9.318;2023-07-08T11:49:50;1.83;;;1.60;;
1336;SDS011;662;48.814;9.318;2023-07-08T11:52:18;2.42;;;2.22;;
1336;SDS011;662;48.814;9.318;2023-07-08T11:54:45;3.67;;;2.47;;
1336;SDS011;662;48.814;9.318;2023-07-08T11:57:19;2.97;;;2.10;;
1336;SDS011;662;48.814;9.318;2023-07-08T12:02:56;2.22;;;1.88;;
1336;SDS011;662;48.814;9.318;2023-07-08T12:05:33;2.22;;;1.75;;
1336;SDS011;662;48.814;9.318;2023-07-08T12:08:00;2.35;;;2.00;;
1336;SDS011;662;48.814;9.318;2023-07-08T12:10:36;2.65;;;2.13;;
1336;SDS011;662;48.814;9.318;2023-07-08T12:13:08;2.15;;;2.05;;
1336;SDS011;662;48.814;9.318;2023-07-08T12:15:37;2.10;;;1.90;;
1336;SDS011;662;48.814;9.318;2023-07-08T12:18:16;2.40;;;1.83;;
1336;SDS011;662;48.814;9.318;2023-07-08T12:20:52;2.22;;;2.05;;
1336;SDS011;662;48.814;9.318;2023-07-08T12:23:20;3.58;;;2.05;;
1336;SDS011;662;48.814;9.318;2023-07-08T12:25:48;2.92;;;1.85;;
1336;SDS011;662;48.814;9.318;2023-07-08T12:28:15;1.65;;;1.55;;
1336;SDS011;662;48.814;9.318;2023-07-08T12:30:41;2.28;;;2.08;;
1336;SDS011;662;48.814;9.318;2023-07-08T12:33:12;3.55;;;2.25;;
1336;SDS011;662;48.814;9.318;2023-07-08T12:35:41;2.67;;;2.28;;
1336;SDS011;662;48.814;9.318;2023-07-08T12:40:56;2.67;;;1.63;;
1336;SDS011;662;48.814;9.318;2023-07-08T12:43:26;2.78;;;1.60;;
1336;SDS011;662;48.814;9.318;2023-07-08T12:45:52;1.95;;;1.75;;
1336;SDS011;662;48.814;9.318;2023-07-08T12:48:17;2.40;;;1.52;;
1336;SDS011;662;48.814;9.318;2023-07-08T12:50:46;2.72;;;1.92;;
1336;SDS011;662;48.814;9.318;2023-07-08T12:53:11;1.77;;;1.67;;
1336;SDS011;662;48.814;9.318;2023-07-08T12:55:40;3.20;;;1.50;;
1336;SDS011;662;48.814;9.318;2023-07-08T12:58:09;4.47;;;1.80;;
1336;SDS011;662;48.814;9.318;2023-07-08T13:00:39;2.55;;;1.90;;
1336;SDS011;662;48.814;9.318;2023-07-08T13:03:08;6.15;;;2.15;;
1336;SDS011;662;48.814;9.318;2023-07-08T13:05:46;2.38;;;2.17;;
1336;SDS011;662;48.814;9.318;2023-07-08T13:08:14;1.90;;;1.70;;
1336;SDS011;662;48.814;9.318;2023-07-08T13:10:43;2.03;;;1.83;;
1336;SDS011;662;48.814;9.318;2023-07-08T13:13:17;2.00;;;1.83;;
1336;SDS011;662;48.814;9.318;2023-07-08T13:15:46;2.40;;;2.20;;
1336;SDS011;662;48.814;9.318;2023-07-08T13:18:15;2.47;;;1.80;;
1336;SDS011;662;48.814;9.318;2023-07-08T13:20:56;2.40;;;1.88;;
1336;SDS011;662;48.814;9.318;2023-07-08T13:23:23;2.15;;;1.90;;
1336;SDS011;662;48.814;9.318;2023-07-08T13:25:49;2.03;;;1.80;;
1336;SDS011;662;48.814;9.318;2023-07-08T13:33:18;2.17;;;1.58;;
1336;SDS011;662;48.814;9.318;2023-07-08T13:35:45;3.67;;;2.03;;
1336;SDS011;662;48.814;9.318;2023-07-08T13:38:13;1.73;;;1.63;;
1336;SDS011;662;48.814;9.318;2023-07-08T13:40:46;2.03;;;1.85;;
1336;SDS011;662;48.814;9.318;2023-07-08T13:43:14;2.63;;;1.80;;
1336;SDS011;662;48.814;9.318;2023-07-08T13:45:44;2.03;;;1.75;;
1336;SDS011;662;48.814;9.318;2023-07-08T13:53:50;2.65;;;1.90;;
1336;SDS011;662;48.814;9.318;2023-07-08T13:56:20;2.22;;;2.00;;
1336;SDS011;662;48.814;9.318;2023-07-08T13:58:49;1.92;;;1.83;;
1336;SDS011;662;48.814;9.318;2023-07-08T14:01:17;2.10;;;1.90;;
1336;SDS011;662;48.814;9.318;2023-07-08T14:03:45;3.25;;;2.10;;
1336;SDS011;662;48.814;9.318;2023-07-08T14:06:13;2.03;;;1.80;;
1336;SDS011;662;48.814;9.318;2023-07-08T14:08:40;2.15;;;2.03;;
1336;SDS011;662;48.814;9.318;2023-07-08T14:11:06;2.47;;;1.80;;
1336;SDS011;662;48.814;9.318;2023-07-08T14:13:31;4.22;;;2.13;;
1336;SDS011;662;48.814;9.318;2023-07-08T14:15:58;2.45;;;2.08;;
1336;SDS011;662;48.814;9.318;2023-07-08T14:18:24;3.60;;;2.60;;
1336;SDS011;662;48.814;9.318;2023-07-08T14:20:49;3.30;;;2.25;;
1336;SDS011;662;48.814;9.318;2023-07-08T14:23:16;2.22;;;2.03;;
1336;SDS011;662;48.814;9.318;2023-07-08T14:25:42;2.45;;;2.25;;
1336;SDS011;662;48.814;9.318;2023-07-08T14:28:08;2.90;;;2.08;;
1336;SDS011;662;48.814;9.318;2023-07-08T14:30:34;3.13;;;2.00;;
1336;SDS011;662;48.814;9.318;2023-07-08T14:33:07;3.55;;;2.22;;
1336;SDS011;662;48.814;9.318;2023-07-08T14:35:35;2.50;;;2.10;;
1336;SDS011;662;48.814;9.318;2023-07-08T14:38:01;2.83;;;2.10;;
1336;SDS011;662;48.814;9.318;2023-07-08T14:40:29;2.60;;;1.60;;
1336;SDS011;662;48.814;9.318;2023-07-08T14:45:39;2.95;;;2.03;;
1336;SDS011;662;48.814;9.318;2023-07-08T14:48:09;2.55;;;2.17;;
1336;SDS011;662;48.814;9.318;2023-07-08T14:50:36;3.70;;;2.80;;
1336;SDS011;662;48.814;9.318;2023-07-08T14:53:03;3.40;;;1.77;;
1336;SDS011;662;48.814;9.318;2023-07-08T14:55:28;2.90;;;2.20;;
1336;SDS011;662;48.814;9.318;2023-07-08T14:57:54;3.67;;;2.30;;
1336;SDS011;662;48.814;9.318;2023-07-08T15:00:22;5.93;;;2.47;;
1336;SDS011;662;48.814;9.318;2023-07-08T15:02:48;2.33;;;2.10;;
1336;SDS011;662;48.814;9.318;2023-07-08T15:05:19;4.57;;;2.20;;
1336;SDS011;662;48.814;9.318;2023-07-08T15:07:50;2.92;;;2.05;;
1336;SDS011;662;48.814;9.318;2023-07-08T15:10:17;1.98;;;1.75;;
1336;SDS011;662;48.814;9.318;2023-07-08T15:12:44;2.60;;;2.40;;
1336;SDS011;662;48.814;9.318;2023-07-08T15:15:19;4.10;;;3.70;;
1336;SDS011;662;48.814;9.318;2023-07-08T15:17:55;2.38;;;2.10;;
1336;SDS011;662;48.814;9.318;2023-07-08T15:20:24;2.08;;;1.88;;
1336;SDS011;662;48.814;9.318;2023-07-08T15:22:50;3.15;;;2.42;;
1336;SDS011;662;48.814;9.318;2023-07-08T15:25:16;2.72;;;2.17;;
1336;SDS011;662;48.814;9.318;2023-07-08T15:27:44;2.43;;;2.23;;
1336;SDS011;662;48.814;9.318;2023-07-08T15:30:17;3.37;;;2.40;;
1336;SDS011;662;48.814;9.318;2023-07-08T15:33:02;2.93;;;1.80;;
1336;SDS011;662;48.814;9.318;2023-07-08T15:35:28;1.73;;;1.63;;
1336;SDS011;662;48.814;9.318;2023-07-08T15:37:55;5.10;;;2.20;;
1336;SDS011;662;48.814;9.318;2023-07-08T15:40:22;5.30;;;2.20;;
1336;SDS011;662;48.814;9.318;2023-07-08T15:42:50;2.10;;;1.90;;
1336;SDS011;662;48.814;9.318;2023-07-08T15:47:48;2.10;;;1.90;;
1336;SDS011;662;48.814;9.318;2023-07-08T15:50:15;4.90;;;2.30;;
1336;SDS011;662;48.814;9.318;2023-07-08T15:52:43;3.67;;;2.40;;
1336;SDS011;662;48.814;9.318;2023-07-08T15:55:09;2.50;;;2.27;;
1336;SDS011;662;48.814;9.318;2023-07-08T15:57:58;4.83;;;2.40;;
1336;SDS011;662;48.814;9.318;2023-07-08T16:00:25;2.83;;;2.23;;
1336;SDS011;662;48.814;9.318;2023-07-08T16:02:54;2.50;;;2.30;;
1336;SDS011;662;48.814;9.318;2023-07-08T16:05:22;2.43;;;2.23;;
1336;SDS011;662;48.814;9.318;2023-07-08T16:07:50;2.33;;;2.10;;
1336;SDS011;662;48.814;9.318;2023-07-08T16:10:16;2.73;;;2.53;;
1336;SDS011;662;48.814;9.318;2023-07-08T16:12:43;2.17;;;1.93;;
1336;SDS011;662;48.814;9.318;2023-07-08T16:15:17;2.23;;;2.00;;
1336;SDS011;662;48.814;9.318;2023-07-08T16:17:44;3.43;;;2.20;;
1336;SDS011;662;48.814;9.318;2023-07-08T16:20:18;2.53;;;2.10;;
1336;SDS011;662;48.814;9.318;2023-07-08T16:22:48;2.23;;;2.03;;
1336;SDS011;662;48.814;9.318;2023-07-08T16:25:15;3.33;;;2.20;;
1336;SDS011;662;48.814;9.318;2023-07-08T16:27:43;4.17;;;2.03;;
1336;SDS011;662;48.814;9.318;2023-07-08T16:30:14;3.03;;;2.20;;
1336;SDS011;662;48.814;9.318;2023-07-08T16:32:42;2.80;;;2.17;;
1336;SDS011;662;48.814;9.318;2023-07-08T16:35:09;3.13;;;2.10;;
1336;SDS011;662;48.814;9.318;2023-07-08T16:37:37;3.10;;;2.53;;
1336;SDS011;662;48.814;9.318;2023-07-08T16:40:04;3.80;;;2.27;;
1336;SDS011;662;48.814;9.318;2023-07-08T16:42:32;3.20;;;2.33;;
1336;SDS011;662;48.814;9.318;2023-07-08T16:44:57;2.77;;;2.50;;
1336;SDS011;662;48.814;9.318;2023-07-08T16:47:23;3.13;;;2.10;;
1336;SDS011;662;48.814;9.318;2023-07-08T16:49:49;2.73;;;2.27;;
1336;SDS011;662;48.814;9.318;2023-07-08T16:52:15;4.40;;;2.20;;
1336;SDS011;662;48.814;9.318;2023-07-08T16:54:42;2.80;;;2.33;;
1336;SDS011;662;48.814;9.318;2023-07-08T16:57:08;3.83;;;2.40;;
1336;SDS011;662;48.814;9.318;2023-07-08T16:59:37;2.57;;;2.00;;